sensor_id;sensor_type;location;lat;lon;timestamp;temperature;humidity
15690;DHT22;7945;48.816;11.506;2022-12-29T00:00:06;4.30;99.90
15690;DHT22;7945;48.816;11.506;2022-12-29T00:02:34;4.30;99.90
15690;DHT22;7945;48.816;11.506;2022-12-29T00:05:01;4.30;99.90
15690;DHT22;7945;48.816;11.506;2022-12-29T00:07:28;4.30;99.90
15690;DHT22;7945;48.816;11.506;2022-12-29T00:09:55;4.30;99.90
15690;DHT22;7945;48.816;11.506;2022-12-29T00:12:21;4.30;99.90
15690;DHT22;7945;48.816;11.506;2022-12-29T00:14:48;4.40;99.90
15690;DHT22;7945;48.816;11.506;2022-12-29T00:17:32;4.40;99.90
15690;DHT22;7945;48.816;11.506;2022-12-29T00:20:00;4.40;99.90
15690;DHT22;7945;48.816;11.506;2022-12-29T00:22:44;4.40;99.90
15690;DHT22;7945;48.816;11.506;2022-12-29T00:25:28;4.40;99.90
15690;DHT22;7945;48.816;11.506;2022-12-29T00:28:12;4.40;99.90
15690;DHT22;7945;48.816;11.506;2022-12-29T00:30:59;4.40;99.90
15690;DHT22;7945;48.816;11.506;2022-12-29T00:33:43;4.40;99.90
15690;DHT22;7945;48.816;11.506;2022-12-29T00:36:32;4.40;99.90
15690;DHT22;7945;48.816;11.506;2022-12-29T00:39:03;4.40;99.90
15690;DHT22;7945;48.816;11.506;2022-12-29T00:41:48;4.40;99.90
15690;DHT22;7945;48.816;11.506;2022-12-29T00:44:32;4.50;99.90
15690;DHT22;7945;48.816;11.506;2022-12-29T00:46:59;4.40;99.90
15690;DHT22;7945;48.816;11.506;2022-12-29T00:49:28;4.50;99.90
15690;DHT22;7945;48.816;11.506;2022-12-29T00:52:00;4.50;99.90
15690;DHT22;7945;48.816;11.506;2022-12-29T00:54:29;4.40;99.90
15690;DHT22;7945;48.816;11.506;2022-12-29T00:56:55;4.40;99.90
15690;DHT22;7945;48.816;11.506;2022-12-29T00:59:22;4.40;99.90
15690;DHT22;7945;48.816;11.506;2022-12-29T01:01:50;4.40;99.90
15690;DHT22;7945;48.816;11.506;2022-12-29T01:04:18;4.40;99.90
15690;DHT22;7945;48.816;11.506;2022-12-29T01:06:45;4.30;99.90
15690;DHT22;7945;48.816;11.506;2022-12-29T01:09:13;4.30;99.90
15690;DHT22;7945;48.816;11.506;2022-12-29T01:11:58;4.30;99.90
15690;DHT22;7945;48.816;11.506;2022-12-29T01:14:25;4.30;99.90
15690;DHT22;7945;48.816;11.506;2022-12-29T01:16:52;4.30;99.90
15690;DHT22;7945;48.816;11.506;2022-12-29T01:19:20;4.30;99.90
15690;DHT22;7945;48.816;11.506;2022-12-29T01:21:47;4.30;99.90
15690;DHT22;7945;48.816;11.506;2022-12-29T01:24:16;4.20;99.90
15690;DHT22;7945;48.816;11.506;2022-12-29T01:26:43;4.20;99.90
15690;DHT22;7945;48.816;11.506;2022-12-29T01:29:10;4.20;99.90
15690;DHT22;7945;48.816;11.506;2022-12-29T01:31:37;4.20;99.90
15690;DHT22;7945;48.816;11.506;2022-12-29T01:34:04;4.20;99.90
15690;DHT22;7945;48.816;11.506;2022-12-29T01:36:31;4.20;99.90
15690;DHT22;7945;48.816;11.506;2022-12-29T01:38:58;4.20;99.90
15690;DHT22;7945;48.816;11.506;2022-12-29T01:41:26;4.20;99.90
15690;DHT22;7945;48.816;11.506;2022-12-29T01:43:55;4.20;99.90
15690;DHT22;7945;48.816;11.506;2022-12-29T01:46:25;4.20;99.90
15690;DHT22;7945;48.816;11.506;2022-12-29T01:48:57;4.20;99.90
15690;DHT22;7945;48.816;11.506;2022-12-29T01:51:25;4.20;99.90
15690;DHT22;7945;48.816;11.506;2022-12-29T01:53:53;4.20;99.90
15690;DHT22;7945;48.816;11.506;2022-12-29T01:56:22;4.20;99.90
15690;DHT22;7945;48.816;11.506;2022-12-29T01:58:55;4.20;99.90
15690;DHT22;7945;48.816;11.506;2022-12-29T02:01:22;4.30;99.90
15690;DHT22;7945;48.816;11.506;2022-12-29T02:03:49;4.30;99.90
15690;DHT22;7945;48.816;11.506;2022-12-29T02:06:19;4.30;99.90
15690;DHT22;7945;48.816;11.506;2022-12-29T02:08:50;4.30;99.90
15690;DHT22;7945;48.816;11.506;2022-12-29T02:11:17;4.30;99.90
15690;DHT22;7945;48.816;11.506;2022-12-29T02:13:44;4.40;99.90
15690;DHT22;7945;48.816;11.506;2022-12-29T02:16:24;4.40;99.90
15690;DHT22;7945;48.816;11.506;2022-12-29T02:19:03;4.40;99.90
15690;DHT22;7945;48.816;11.506;2022-12-29T02:21:52;4.40;99.90
15690;DHT22;7945;48.816;11.506;2022-12-29T02:24:49;4.50;99.90
15690;DHT22;7945;48.816;11.506;2022-12-29T02:28:00;4.40;99.90
15690;DHT22;7945;48.816;11.506;2022-12-29T02:30:44;4.40;99.90
15690;DHT22;7945;48.816;11.506;2022-12-29T02:33:31;4.40;99.90
15690;DHT22;7945;48.816;11.506;2022-12-29T02:36:06;4.40;99.90
15690;DHT22;7945;48.816;11.506;2022-12-29T02:38:47;4.40;99.90
15690;DHT22;7945;48.816;11.506;2022-12-29T02:41:20;4.40;99.90
15690;DHT22;7945;48.816;11.506;2022-12-29T02:43:53;4.40;99.90
15690;DHT22;7945;48.816;11.506;2022-12-29T02:46:27;4.50;99.90
15690;DHT22;7945;48.816;11.506;2022-12-29T02:48:59;4.50;99.90
15690;DHT22;7945;48.816;11.506;2022-12-29T02:51:32;4.50;99.90
15690;DHT22;7945;48.816;11.506;2022-12-29T02:54:01;4.60;99.90
15690;DHT22;7945;48.816;11.506;2022-12-29T02:56:45;4.60;99.90
15690;DHT22;7945;48.816;11.506;2022-12-29T02:59:12;4.60;99.90
15690;DHT22;7945;48.816;11.506;2022-12-29T03:01:52;4.60;99.90
15690;DHT22;7945;48.816;11.506;2022-12-29T03:04:42;4.70;99.90
15690;DHT22;7945;48.816;11.506;2022-12-29T03:07:20;4.70;99.90
15690;DHT22;7945;48.816;11.506;2022-12-29T03:09:52;4.70;99.90
15690;DHT22;7945;48.816;11.506;2022-12-29T03:12:28;4.70;99.90
15690;DHT22;7945;48.816;11.506;2022-12-29T03:15:18;4.70;99.90
15690;DHT22;7945;48.816;11.506;2022-12-29T03:18:10;4.70;99.90
15690;DHT22;7945;48.816;11.506;2022-12-29T03:20:44;4.70;99.90
15690;DHT22;7945;48.816;11.506;2022-12-29T03:23:14;4.70;99.90
15690;DHT22;7945;48.816;11.506;2022-12-29T03:25:44;4.70;99.90
15690;DHT22;7945;48.816;11.506;2022-12-29T03:28:17;4.70;99.90
15690;DHT22;7945;48.816;11.506;2022-12-29T03:30:45;4.70;99.90
15690;DHT22;7945;48.816;11.506;2022-12-29T03:33:17;4.70;99.90
15690;DHT22;7945;48.816;11.506;2022-12-29T03:35:45;4.70;99.90
15690;DHT22;7945;48.816;11.506;2022-12-29T03:38:16;4.80;99.90
15690;DHT22;7945;48.816;11.506;2022-12-29T03:40:45;4.80;99.90
15690;DHT22;7945;48.816;11.506;2022-12-29T03:43:13;4.80;99.90
15690;DHT22;7945;48.816;11.506;2022-12-29T03:45:41;4.80;99.90
15690;DHT22;7945;48.816;11.506;2022-12-29T03:48:08;4.80;99.90
15690;DHT22;7945;48.816;11.506;2022-12-29T03:50:36;4.80;99.90
15690;DHT22;7945;48.816;11.506;2022-12-29T03:53:02;4.80;99.90
15690;DHT22;7945;48.816;11.506;2022-12-29T03:55:29;4.80;99.90
15690;DHT22;7945;48.816;11.506;2022-12-29T03:57:56;4.90;99.90
15690;DHT22;7945;48.816;11.506;2022-12-29T04:00:22;4.80;99.90
15690;DHT22;7945;48.816;11.506;2022-12-29T04:02:50;4.90;99.90
15690;DHT22;7945;48.816;11.506;2022-12-29T04:05:16;4.90;99.90
15690;DHT22;7945;48.816;11.506;2022-12-29T04:07:44;4.80;99.90
15690;DHT22;7945;48.816;11.506;2022-12-29T04:10:11;4.90;99.90
15690;DHT22;7945;48.816;11.506;2022-12-29T04:12:38;4.80;99.90
15690;DHT22;7945;48.816;11.506;2022-12-29T04:15:05;4.80;99.90
15690;DHT22;7945;48.816;11.506;2022-12-29T04:17:32;4.80;99.90
15690;DHT22;7945;48.816;11.506;2022-12-29T04:19:59;4.80;99.90
15690;DHT22;7945;48.816;11.506;2022-12-29T04:22:40;4.80;99.90
15690;DHT22;7945;48.816;11.506;2022-12-29T04:25:08;4.80;99.90
15690;DHT22;7945;48.816;11.506;2022-12-29T04:27:35;4.90;99.90
15690;DHT22;7945;48.816;11.506;2022-12-29T04:30:02;4.90;99.90
15690;DHT22;7945;48.816;11.506;2022-12-29T04:32:29;4.90;99.90
15690;DHT22;7945;48.816;11.506;2022-12-29T04:34:56;4.90;99.90
15690;DHT22;7945;48.816;11.506;2022-12-29T04:37:23;4.90;99.90
15690;DHT22;7945;48.816;11.506;2022-12-29T04:39:49;4.90;99.90
15690;DHT22;7945;48.816;11.506;2022-12-29T04:42:17;4.90;99.90
15690;DHT22;7945;48.816;11.506;2022-12-29T04:44:44;4.90;99.90
15690;DHT22;7945;48.816;11.506;2022-12-29T04:47:11;4.90;99.90
15690;DHT22;7945;48.816;11.506;2022-12-29T04:49:37;5.00;99.90
15690;DHT22;7945;48.816;11.506;2022-12-29T04:52:04;5.00;99.90
15690;DHT22;7945;48.816;11.506;2022-12-29T04:54:31;5.00;99.90
15690;DHT22;7945;48.816;11.506;2022-12-29T04:56:57;5.00;99.90
15690;DHT22;7945;48.816;11.506;2022-12-29T04:59:25;5.00;99.90
15690;DHT22;7945;48.816;11.506;2022-12-29T05:01:52;5.00;99.90
15690;DHT22;7945;48.816;11.506;2022-12-29T05:04:19;5.00;99.90
15690;DHT22;7945;48.816;11.506;2022-12-29T05:06:45;5.00;99.90
15690;DHT22;7945;48.816;11.506;2022-12-29T05:09:12;5.00;99.90
15690;DHT22;7945;48.816;11.506;2022-12-29T05:11:39;5.00;99.90
15690;DHT22;7945;48.816;11.506;2022-12-29T05:14:05;5.00;99.90
15690;DHT22;7945;48.816;11.506;2022-12-29T05:16:33;5.00;99.90
15690;DHT22;7945;48.816;11.506;2022-12-29T05:19:00;5.00;99.90
15690;DHT22;7945;48.816;11.506;2022-12-29T05:21:27;5.00;99.90
15690;DHT22;7945;48.816;11.506;2022-12-29T05:23:53;5.00;99.90
15690;DHT22;7945;48.816;11.506;2022-12-29T05:26:20;5.00;99.90
15690;DHT22;7945;48.816;11.506;2022-12-29T05:28:47;5.00;99.90
15690;DHT22;7945;48.816;11.506;2022-12-29T05:31:13;5.00;99.90
15690;DHT22;7945;48.816;11.506;2022-12-29T05:33:41;5.00;99.90
15690;DHT22;7945;48.816;11.506;2022-12-29T05:36:09;5.00;99.90
15690;DHT22;7945;48.816;11.506;2022-12-29T05:38:36;5.00;99.90
15690;DHT22;7945;48.816;11.506;2022-12-29T05:41:03;5.00;99.90
15690;DHT22;7945;48.816;11.506;2022-12-29T05:43:29;5.00;99.90
15690;DHT22;7945;48.816;11.506;2022-12-29T05:45:57;5.00;99.90
15690;DHT22;7945;48.816;11.506;2022-12-29T05:48:24;5.00;99.90
15690;DHT22;7945;48.816;11.506;2022-12-29T05:50:52;5.00;99.90
15690;DHT22;7945;48.816;11.506;2022-12-29T05:53:19;5.00;99.90
15690;DHT22;7945;48.816;11.506;2022-12-29T05:55:47;5.00;99.90
15690;DHT22;7945;48.816;11.506;2022-12-29T05:58:14;5.00;99.90
15690;DHT22;7945;48.816;11.506;2022-12-29T06:00:41;4.90;99.90
15690;DHT22;7945;48.816;11.506;2022-12-29T06:03:08;4.90;99.90
15690;DHT22;7945;48.816;11.506;2022-12-29T06:05:35;4.90;99.90
15690;DHT22;7945;48.816;11.506;2022-12-29T06:08:03;4.90;99.90
15690;DHT22;7945;48.816;11.506;2022-12-29T06:10:30;4.90;99.90
15690;DHT22;7945;48.816;11.506;2022-12-29T06:15:00;4.90;99.90
15690;DHT22;7945;48.816;11.506;2022-12-29T06:17:27;4.90;99.90
15690;DHT22;7945;48.816;11.506;2022-12-29T06:19:54;4.80;99.90
15690;DHT22;7945;48.816;11.506;2022-12-29T06:22:21;4.80;99.90
15690;DHT22;7945;48.816;11.506;2022-12-29T06:24:47;4.80;99.90
15690;DHT22;7945;48.816;11.506;2022-12-29T06:27:14;4.70;99.90
15690;DHT22;7945;48.816;11.506;2022-12-29T06:29:41;4.70;99.90
15690;DHT22;7945;48.816;11.506;2022-12-29T06:32:09;4.70;99.90
15690;DHT22;7945;48.816;11.506;2022-12-29T06:34:36;4.70;99.90
15690;DHT22;7945;48.816;11.506;2022-12-29T06:37:03;4.70;99.90
15690;DHT22;7945;48.816;11.506;2022-12-29T06:39:30;4.70;99.90
15690;DHT22;7945;48.816;11.506;2022-12-29T06:41:56;4.60;99.90
15690;DHT22;7945;48.816;11.506;2022-12-29T06:44:23;4.60;99.90
15690;DHT22;7945;48.816;11.506;2022-12-29T06:46:50;4.60;99.90
15690;DHT22;7945;48.816;11.506;2022-12-29T06:49:18;4.60;99.90
15690;DHT22;7945;48.816;11.506;2022-12-29T06:51:45;4.60;99.90
15690;DHT22;7945;48.816;11.506;2022-12-29T06:54:12;4.50;99.90
15690;DHT22;7945;48.816;11.506;2022-12-29T06:56:39;4.50;99.90
15690;DHT22;7945;48.816;11.506;2022-12-29T06:59:05;4.50;99.90
15690;DHT22;7945;48.816;11.506;2022-12-29T07:01:32;4.50;99.90
15690;DHT22;7945;48.816;11.506;2022-12-29T07:04:01;4.50;99.90
15690;DHT22;7945;48.816;11.506;2022-12-29T07:06:29;4.50;99.90
15690;DHT22;7945;48.816;11.506;2022-12-29T07:08:56;4.50;99.90
15690;DHT22;7945;48.816;11.506;2022-12-29T07:11:23;4.50;99.90
15690;DHT22;7945;48.816;11.506;2022-12-29T07:13:50;4.50;99.90
15690;DHT22;7945;48.816;11.506;2022-12-29T07:16:17;4.40;99.90
15690;DHT22;7945;48.816;11.506;2022-12-29T07:18:44;4.40;99.90
15690;DHT22;7945;48.816;11.506;2022-12-29T07:21:11;4.40;99.90
15690;DHT22;7945;48.816;11.506;2022-12-29T07:23:39;4.40;99.90
15690;DHT22;7945;48.816;11.506;2022-12-29T07:26:08;4.30;99.90
15690;DHT22;7945;48.816;11.506;2022-12-29T07:28:36;4.30;99.90
15690;DHT22;7945;48.816;11.506;2022-12-29T07:31:03;4.30;99.90
15690;DHT22;7945;48.816;11.506;2022-12-29T07:33:31;4.40;99.90
15690;DHT22;7945;48.816;11.506;2022-12-29T07:35:58;4.40;99.90
15690;DHT22;7945;48.816;11.506;2022-12-29T07:38:25;4.40;99.90
15690;DHT22;7945;48.816;11.506;2022-12-29T07:40:56;4.40;99.90
15690;DHT22;7945;48.816;11.506;2022-12-29T07:43:23;4.40;99.90
15690;DHT22;7945;48.816;11.506;2022-12-29T07:45:50;4.50;99.90
15690;DHT22;7945;48.816;11.506;2022-12-29T07:48:16;4.50;99.90
15690;DHT22;7945;48.816;11.506;2022-12-29T07:50:43;4.60;99.90
15690;DHT22;7945;48.816;11.506;2022-12-29T07:53:10;4.70;99.90
15690;DHT22;7945;48.816;11.506;2022-12-29T07:55:36;4.70;99.90
15690;DHT22;7945;48.816;11.506;2022-12-29T07:58:04;4.80;99.90
15690;DHT22;7945;48.816;11.506;2022-12-29T08:00:31;4.80;99.90
15690;DHT22;7945;48.816;11.506;2022-12-29T08:02:58;4.90;99.90
15690;DHT22;7945;48.816;11.506;2022-12-29T08:05:25;5.00;99.90
15690;DHT22;7945;48.816;11.506;2022-12-29T08:07:51;5.00;99.90
15690;DHT22;7945;48.816;11.506;2022-12-29T08:10:18;5.00;99.90
15690;DHT22;7945;48.816;11.506;2022-12-29T08:12:45;5.00;99.90
15690;DHT22;7945;48.816;11.506;2022-12-29T08:15:13;5.10;99.90
15690;DHT22;7945;48.816;11.506;2022-12-29T08:17:40;5.10;99.90
15690;DHT22;7945;48.816;11.506;2022-12-29T08:20:08;5.10;99.90
15690;DHT22;7945;48.816;11.506;2022-12-29T08:22:34;5.20;99.90
15690;DHT22;7945;48.816;11.506;2022-12-29T08:25:02;5.30;99.90
15690;DHT22;7945;48.816;11.506;2022-12-29T08:27:29;5.30;99.90
15690;DHT22;7945;48.816;11.506;2022-12-29T08:29:55;5.30;99.90
15690;DHT22;7945;48.816;11.506;2022-12-29T08:32:23;5.40;99.90
15690;DHT22;7945;48.816;11.506;2022-12-29T08:34:50;5.50;99.90
15690;DHT22;7945;48.816;11.506;2022-12-29T08:37:17;5.50;99.90
15690;DHT22;7945;48.816;11.506;2022-12-29T08:39:44;5.60;99.90
15690;DHT22;7945;48.816;11.506;2022-12-29T08:42:10;5.60;99.90
15690;DHT22;7945;48.816;11.506;2022-12-29T08:44:37;5.70;99.90
15690;DHT22;7945;48.816;11.506;2022-12-29T08:47:04;5.70;99.90
15690;DHT22;7945;48.816;11.506;2022-12-29T08:49:32;5.80;99.90
15690;DHT22;7945;48.816;11.506;2022-12-29T08:51:59;5.80;99.90
15690;DHT22;7945;48.816;11.506;2022-12-29T08:54:26;5.90;99.90
15690;DHT22;7945;48.816;11.506;2022-12-29T08:56:52;5.90;99.90
15690;DHT22;7945;48.816;11.506;2022-12-29T08:59:20;6.00;99.90
15690;DHT22;7945;48.816;11.506;2022-12-29T09:01:46;6.00;99.90
15690;DHT22;7945;48.816;11.506;2022-12-29T09:04:13;6.10;99.90
15690;DHT22;7945;48.816;11.506;2022-12-29T09:06:41;6.10;99.90
15690;DHT22;7945;48.816;11.506;2022-12-29T09:09:08;6.20;99.90
15690;DHT22;7945;48.816;11.506;2022-12-29T09:11:35;6.30;99.90
15690;DHT22;7945;48.816;11.506;2022-12-29T09:14:02;6.30;99.90
15690;DHT22;7945;48.816;11.506;2022-12-29T09:16:29;6.40;99.90
15690;DHT22;7945;48.816;11.506;2022-12-29T09:18:55;6.40;99.90
15690;DHT22;7945;48.816;11.506;2022-12-29T09:21:22;6.40;99.90
15690;DHT22;7945;48.816;11.506;2022-12-29T09:23:50;6.50;99.90
15690;DHT22;7945;48.816;11.506;2022-12-29T09:26:17;6.50;99.90
15690;DHT22;7945;48.816;11.506;2022-12-29T09:28:44;6.50;99.90
15690;DHT22;7945;48.816;11.506;2022-12-29T09:31:11;6.60;99.90
15690;DHT22;7945;48.816;11.506;2022-12-29T09:33:38;6.70;99.90
15690;DHT22;7945;48.816;11.506;2022-12-29T09:36:05;6.80;99.90
15690;DHT22;7945;48.816;11.506;2022-12-29T09:38:32;6.80;99.90
15690;DHT22;7945;48.816;11.506;2022-12-29T09:41:06;6.90;99.90
15690;DHT22;7945;48.816;11.506;2022-12-29T09:43:50;6.90;99.90
15690;DHT22;7945;48.816;11.506;2022-12-29T09:46:24;7.00;99.90
15690;DHT22;7945;48.816;11.506;2022-12-29T09:48:58;7.20;99.90
15690;DHT22;7945;48.816;11.506;2022-12-29T09:51:27;7.40;99.90
15690;DHT22;7945;48.816;11.506;2022-12-29T09:53:57;7.60;99.90
15690;DHT22;7945;48.816;11.506;2022-12-29T09:56:27;7.90;99.90
15690;DHT22;7945;48.816;11.506;2022-12-29T09:58:58;8.10;99.90
15690;DHT22;7945;48.816;11.506;2022-12-29T10:01:30;8.40;99.90
15690;DHT22;7945;48.816;11.506;2022-12-29T10:03:59;8.70;99.90
15690;DHT22;7945;48.816;11.506;2022-12-29T10:06:35;8.80;99.90
15690;DHT22;7945;48.816;11.506;2022-12-29T10:09:11;8.80;99.90
15690;DHT22;7945;48.816;11.506;2022-12-29T10:11:57;8.90;99.90
15690;DHT22;7945;48.816;11.506;2022-12-29T10:14:37;8.90;99.90
15690;DHT22;7945;48.816;11.506;2022-12-29T10:17:15;8.90;99.90
15690;DHT22;7945;48.816;11.506;2022-12-29T10:19:55;9.00;99.90
15690;DHT22;7945;48.816;11.506;2022-12-29T10:22:38;9.10;99.90
15690;DHT22;7945;48.816;11.506;2022-12-29T10:25:15;9.10;99.90
15690;DHT22;7945;48.816;11.506;2022-12-29T10:27:47;9.20;99.90
15690;DHT22;7945;48.816;11.506;2022-12-29T10:30:15;9.30;99.90
15690;DHT22;7945;48.816;11.506;2022-12-29T10:32:46;9.40;99.90
15690;DHT22;7945;48.816;11.506;2022-12-29T10:35:18;9.40;99.90
15690;DHT22;7945;48.816;11.506;2022-12-29T10:37:49;9.40;99.90
15690;DHT22;7945;48.816;11.506;2022-12-29T10:40:22;9.40;99.90
15690;DHT22;7945;48.816;11.506;2022-12-29T10:42:54;9.50;99.90
15690;DHT22;7945;48.816;11.506;2022-12-29T10:45:24;9.50;99.90
15690;DHT22;7945;48.816;11.506;2022-12-29T10:47:55;9.50;99.90
15690;DHT22;7945;48.816;11.506;2022-12-29T10:50:24;9.50;99.90
15690;DHT22;7945;48.816;11.506;2022-12-29T10:52:51;9.60;99.90
15690;DHT22;7945;48.816;11.506;2022-12-29T10:55:22;9.60;99.90
15690;DHT22;7945;48.816;11.506;2022-12-29T10:57:51;9.70;99.90
15690;DHT22;7945;48.816;11.506;2022-12-29T11:00:20;9.70;99.90
15690;DHT22;7945;48.816;11.506;2022-12-29T11:03:21;9.80;99.90
15690;DHT22;7945;48.816;11.506;2022-12-29T11:05:56;9.80;99.90
15690;DHT22;7945;48.816;11.506;2022-12-29T11:08:25;9.80;99.90
15690;DHT22;7945;48.816;11.506;2022-12-29T11:10:58;9.80;99.90
15690;DHT22;7945;48.816;11.506;2022-12-29T11:13:29;9.90;99.90
15690;DHT22;7945;48.816;11.506;2022-12-29T11:15:56;10.00;99.90
15690;DHT22;7945;48.816;11.506;2022-12-29T11:18:26;10.10;99.90
15690;DHT22;7945;48.816;11.506;2022-12-29T11:20:55;10.20;99.90
15690;DHT22;7945;48.816;11.506;2022-12-29T11:23:31;10.40;99.90
15690;DHT22;7945;48.816;11.506;2022-12-29T11:26:17;10.50;99.90
15690;DHT22;7945;48.816;11.506;2022-12-29T11:28:47;10.60;99.90
15690;DHT22;7945;48.816;11.506;2022-12-29T11:31:17;10.60;99.90
15690;DHT22;7945;48.816;11.506;2022-12-29T11:33:45;10.70;99.90
15690;DHT22;7945;48.816;11.506;2022-12-29T11:36:15;10.70;99.90
15690;DHT22;7945;48.816;11.506;2022-12-29T11:38:46;10.70;99.90
15690;DHT22;7945;48.816;11.506;2022-12-29T11:41:20;10.70;99.90
15690;DHT22;7945;48.816;11.506;2022-12-29T11:43:48;10.70;99.90
15690;DHT22;7945;48.816;11.506;2022-12-29T11:46:17;10.60;99.90
15690;DHT22;7945;48.816;11.506;2022-12-29T11:48:46;10.80;99.90
15690;DHT22;7945;48.816;11.506;2022-12-29T11:51:21;10.80;99.90
15690;DHT22;7945;48.816;11.506;2022-12-29T11:53:50;11.00;99.90
15690;DHT22;7945;48.816;11.506;2022-12-29T11:56:21;11.00;99.90
15690;DHT22;7945;48.816;11.506;2022-12-29T11:58:50;11.10;99.90
15690;DHT22;7945;48.816;11.506;2022-12-29T12:01:23;11.10;99.90
15690;DHT22;7945;48.816;11.506;2022-12-29T12:04:00;11.10;99.90
15690;DHT22;7945;48.816;11.506;2022-12-29T12:06:29;11.00;99.90
15690;DHT22;7945;48.816;11.506;2022-12-29T12:09:02;10.90;99.90
15690;DHT22;7945;48.816;11.506;2022-12-29T12:11:34;10.90;99.90
15690;DHT22;7945;48.816;11.506;2022-12-29T12:14:12;10.90;99.90
15690;DHT22;7945;48.816;11.506;2022-12-29T12:16:44;10.80;99.90
15690;DHT22;7945;48.816;11.506;2022-12-29T12:19:18;10.80;99.90
15690;DHT22;7945;48.816;11.506;2022-12-29T12:21:50;10.70;99.90
15690;DHT22;7945;48.816;11.506;2022-12-29T12:24:34;10.70;99.90
15690;DHT22;7945;48.816;11.506;2022-12-29T12:27:08;10.80;99.90
15690;DHT22;7945;48.816;11.506;2022-12-29T12:29:41;10.80;99.90
15690;DHT22;7945;48.816;11.506;2022-12-29T12:32:15;10.80;99.90
15690;DHT22;7945;48.816;11.506;2022-12-29T12:34:45;10.90;99.90
15690;DHT22;7945;48.816;11.506;2022-12-29T12:37:34;10.90;99.90
15690;DHT22;7945;48.816;11.506;2022-12-29T12:40:25;10.90;99.90
15690;DHT22;7945;48.816;11.506;2022-12-29T12:43:08;11.00;99.90
15690;DHT22;7945;48.816;11.506;2022-12-29T12:45:48;11.00;99.90
15690;DHT22;7945;48.816;11.506;2022-12-29T12:48:33;11.00;99.90
15690;DHT22;7945;48.816;11.506;2022-12-29T12:51:07;11.00;99.90
15690;DHT22;7945;48.816;11.506;2022-12-29T12:54:01;11.10;99.90
15690;DHT22;7945;48.816;11.506;2022-12-29T12:56:56;11.10;99.90
15690;DHT22;7945;48.816;11.506;2022-12-29T12:59:36;11.10;99.90
15690;DHT22;7945;48.816;11.506;2022-12-29T13:02:16;11.10;99.90
15690;DHT22;7945;48.816;11.506;2022-12-29T13:05:07;11.20;99.90
15690;DHT22;7945;48.816;11.506;2022-12-29T13:07:44;11.30;99.90
15690;DHT22;7945;48.816;11.506;2022-12-29T13:10:27;11.30;99.90
15690;DHT22;7945;48.816;11.506;2022-12-29T13:13:02;11.30;99.90
15690;DHT22;7945;48.816;11.506;2022-12-29T13:15:42;11.40;99.90
15690;DHT22;7945;48.816;11.506;2022-12-29T13:18:19;11.30;99.90
15690;DHT22;7945;48.816;11.506;2022-12-29T13:20:52;11.30;99.90
15690;DHT22;7945;48.816;11.506;2022-12-29T13:23:24;11.30;99.90
15690;DHT22;7945;48.816;11.506;2022-12-29T13:25:57;11.20;99.90
15690;DHT22;7945;48.816;11.506;2022-12-29T13:28:34;11.30;99.90
15690;DHT22;7945;48.816;11.506;2022-12-29T13:31:09;11.20;99.90
15690;DHT22;7945;48.816;11.506;2022-12-29T13:33:47;11.20;99.90
15690;DHT22;7945;48.816;11.506;2022-12-29T13:36:21;11.30;99.90
15690;DHT22;7945;48.816;11.506;2022-12-29T13:38:53;11.20;99.90
15690;DHT22;7945;48.816;11.506;2022-12-29T13:41:29;11.20;99.90
15690;DHT22;7945;48.816;11.506;2022-12-29T13:43:57;11.10;99.90
15690;DHT22;7945;48.816;11.506;2022-12-29T13:46:28;11.10;99.90
15690;DHT22;7945;48.816;11.506;2022-12-29T13:49:01;11.10;99.90
15690;DHT22;7945;48.816;11.506;2022-12-29T13:51:30;11.00;99.90
15690;DHT22;7945;48.816;11.506;2022-12-29T13:54:11;11.00;99.90
15690;DHT22;7945;48.816;11.506;2022-12-29T13:56:41;11.00;99.90
15690;DHT22;7945;48.816;11.506;2022-12-29T13:59:17;11.00;99.90
15690;DHT22;7945;48.816;11.506;2022-12-29T14:01:52;11.00;99.90
15690;DHT22;7945;48.816;11.506;2022-12-29T14:04:26;11.00;99.90
15690;DHT22;7945;48.816;11.506;2022-12-29T14:07:01;11.00;99.90
15690;DHT22;7945;48.816;11.506;2022-12-29T14:09:42;11.00;99.90
15690;DHT22;7945;48.816;11.506;2022-12-29T14:12:30;11.00;99.90
15690;DHT22;7945;48.816;11.506;2022-12-29T14:15:14;10.90;99.90
15690;DHT22;7945;48.816;11.506;2022-12-29T14:17:42;10.90;99.90
15690;DHT22;7945;48.816;11.506;2022-12-29T14:20:20;10.80;99.90
15690;DHT22;7945;48.816;11.506;2022-12-29T14:22:56;10.90;99.90
15690;DHT22;7945;48.816;11.506;2022-12-29T14:25:52;10.90;99.90
15690;DHT22;7945;48.816;11.506;2022-12-29T14:28:23;10.80;99.90
15690;DHT22;7945;48.816;11.506;2022-12-29T14:30:52;10.80;99.90
15690;DHT22;7945;48.816;11.506;2022-12-29T14:33:20;10.70;99.90
15690;DHT22;7945;48.816;11.506;2022-12-29T14:35:49;10.70;99.90
15690;DHT22;7945;48.816;11.506;2022-12-29T14:38:20;10.70;99.90
15690;DHT22;7945;48.816;11.506;2022-12-29T14:40:48;10.70;99.90
15690;DHT22;7945;48.816;11.506;2022-12-29T14:43:21;10.70;99.90
15690;DHT22;7945;48.816;11.506;2022-12-29T14:45:57;10.70;99.90
15690;DHT22;7945;48.816;11.506;2022-12-29T14:48:34;10.70;99.90
15690;DHT22;7945;48.816;11.506;2022-12-29T14:51:20;10.70;99.90
15690;DHT22;7945;48.816;11.506;2022-12-29T14:53:49;10.80;99.90
15690;DHT22;7945;48.816;11.506;2022-12-29T14:56:17;10.70;99.90
15690;DHT22;7945;48.816;11.506;2022-12-29T14:58:49;10.70;99.90
15690;DHT22;7945;48.816;11.506;2022-12-29T15:01:22;10.60;99.90
15690;DHT22;7945;48.816;11.506;2022-12-29T15:03:53;10.60;99.90
15690;DHT22;7945;48.816;11.506;2022-12-29T15:06:23;10.50;99.90
15690;DHT22;7945;48.816;11.506;2022-12-29T15:08:54;10.50;99.90
15690;DHT22;7945;48.816;11.506;2022-12-29T15:11:22;10.50;99.90
15690;DHT22;7945;48.816;11.506;2022-12-29T15:13:50;10.40;99.90
15690;DHT22;7945;48.816;11.506;2022-12-29T15:16:24;10.40;99.90
15690;DHT22;7945;48.816;11.506;2022-12-29T15:18:51;10.30;99.90
15690;DHT22;7945;48.816;11.506;2022-12-29T15:21:24;10.30;99.90
15690;DHT22;7945;48.816;11.506;2022-12-29T15:23:52;10.30;99.90
15690;DHT22;7945;48.816;11.506;2022-12-29T15:26:20;10.30;99.90
15690;DHT22;7945;48.816;11.506;2022-12-29T15:28:49;10.20;99.90
15690;DHT22;7945;48.816;11.506;2022-12-29T15:31:18;10.20;99.90
15690;DHT22;7945;48.816;11.506;2022-12-29T15:33:46;10.20;99.90
15690;DHT22;7945;48.816;11.506;2022-12-29T15:36:19;10.20;99.90
15690;DHT22;7945;48.816;11.506;2022-12-29T15:38:48;10.20;99.90
15690;DHT22;7945;48.816;11.506;2022-12-29T15:41:25;10.10;99.90
15690;DHT22;7945;48.816;11.506;2022-12-29T15:44:02;10.10;99.90
15690;DHT22;7945;48.816;11.506;2022-12-29T15:46:31;10.10;99.90
15690;DHT22;7945;48.816;11.506;2022-12-29T15:48:58;10.00;99.90
15690;DHT22;7945;48.816;11.506;2022-12-29T15:51:28;10.00;99.90
15690;DHT22;7945;48.816;11.506;2022-12-29T15:53:57;10.00;99.90
15690;DHT22;7945;48.816;11.506;2022-12-29T15:56:24;10.00;99.90
15690;DHT22;7945;48.816;11.506;2022-12-29T15:58:51;10.00;99.90
15690;DHT22;7945;48.816;11.506;2022-12-29T16:01:30;9.90;99.90
15690;DHT22;7945;48.816;11.506;2022-12-29T16:03:58;9.90;99.90
15690;DHT22;7945;48.816;11.506;2022-12-29T16:06:29;9.90;99.90
15690;DHT22;7945;48.816;11.506;2022-12-29T16:08:59;9.90;99.90